El Rito, NM (87530)

7:32 AM MST on December 04, 2016 (GMT -0700)
El Ojito | | Change Station

Elev 7359 ft 36.43 °N, 106.04 °W | Updated 2 minutes ago

Clear
Clear
13.5 °F
Feels Like 14 °F
N
2.0
Wind Variable Wind from WNW
Gusts 4.0 mph

Today
High -- | Low -- °F
--% Chance of Precip.
Yesterday
High -- | Low -- °F
Precip. -- in
Pressure 30.17 in
Visibility 10.0 miles
Clouds Clear
Windchill 14 °F
Dew Point 7 °F
Humidity 75%
Rainfall 0.00 in
Snow Depth Not available.
7:00 AM 4:49 PM
Waxing Crescent, 23% visible
METAR KSKX 041415Z AUTO 05004KT 10SM CLR M13/M19 A3017 RMK AO1
Pressure 30.17 in
Visibility 10.0 miles
Clouds Clear
Windchill 14 °F
Dew Point 7 °F
Humidity 75%
Rainfall 0.00 in
Snow Depth Not available.
7:00 AM 4:49 PM
Waxing Crescent, 23% visible
METAR KSKX 041415Z AUTO 05004KT 10SM CLR M13/M19 A3017 RMK AO1

10-Day Weather Forecast

Almanac

Astronomy

Dec. 04, 2016 Rise Set
Actual Time
Civil Twilight
Nautical Twilight
Astronomical Twilight
Moon
Length of Visible Light
Length of Day
Tomorrow will be .
, % of the Moon is Illuminated

Today's Extremes

State Highs State Lows

Community

WunderPhotos

Upload Photos

1,955,598 photos uploaded!

WunderBlog® & News

Nearby

Air Quality

  Air Quality AQ Index Pollutant
Not available.

Snow Depth

Station Depth Elevation

Earthquake Activity

City Distance Mag. Time & Date
Minimum magnitude displayed is 2.5.

Coastal Water Temperatures

Place Temperature

Stations

Nearby Weather Stations

Station Location Temp. Windchill Dew Point Humidity Wind Precip. Elev Updated Type
                   

Watches & Warnings

There are currently no watches in effect.